Bee House, Texas
Current Conditions -  °F | °C
As of 3:35 PM on Friday 24 Oct 2014 (Local Time) from KMNZ Reporting Station
Scattered Clouds Scattered Clouds  
Wind Chill: 85°   Ceiling: Unl
Heat Index: 85°   Visibility: 10mi
Dew Point: 57°   Wind: 8mph
Humidity: 38%   Direction: 170°S
Pressure: 30.11"   Gusts: 20mph
Location:  31.463°N, 98.243°W
Report Text: KMNZ 242035Z AUTO 17007G17KT 10SM SCT050 30/14 A3011 RMK AO2 T02950137
Loading
Personal Weather Stations






























Interactive Weather Map
Tropical Storm Tracking
New forecast layout! Learn more

10-Day Weather Forecast

Advertisements
Track Severe Weather on mobile